Time;durP1;ratioP1;P1;durP2;ratioP2;P2;SDS_P1;SDS_P2;PMS_P1;PMS_P2;Temp;Humidity;BMP_temperature;BMP_pressure;BME280_temperature;BME280_humidity;BME280_pressure;Samples;Min_cycle;Max_cycle;Signal;HPM_P1;HPM_P2
2023/03/23 00:00:08;;;;;;;6.07;4.33;;;13.80;99.90;;;;;;5053945;28;20662;-81
2023/03/23 00:02:37;;;;;;;5.93;4.00;;;13.60;99.90;;;;;;5053497;28;20199;-81
2023/03/23 00:05:07;;;;;;;7.20;4.87;;;13.60;99.90;;;;;;5054528;28;20629;-80
2023/03/23 00:07:34;;;;;;;7.47;4.60;;;13.60;99.90;;;;;;5053866;28;20249;-80
2023/03/23 00:10:02;;;;;;;6.73;4.10;;;13.70;99.90;;;;;;5053363;28;20269;-80
2023/03/23 00:12:33;;;;;;;7.13;4.03;;;13.70;99.90;;;;;;5052955;28;20663;-81
2023/03/23 00:15:12;;;;;;;8.83;3.83;;;13.70;99.90;;;;;;5052887;28;20187;-83
2023/03/23 00:17:38;;;;;;;8.23;4.07;;;13.80;99.90;;;;;;5052488;28;20186;-80
2023/03/23 00:20:05;;;;;;;7.03;3.97;;;13.80;99.90;;;;;;5053048;28;20628;-81
2023/03/23 00:22:37;;;;;;;4.53;3.07;;;14.00;99.90;;;;;;5053086;28;20556;-80
2023/03/23 00:25:05;;;;;;;6.20;3.60;;;13.90;99.90;;;;;;5052713;28;20200;-82
2023/03/23 00:27:31;;;;;;;6.47;3.73;;;14.00;99.90;;;;;;5054194;28;20614;-82
2023/03/23 00:29:57;;;;;;;4.57;3.27;;;13.90;99.90;;;;;;5052623;28;20259;-82
2023/03/23 00:32:28;;;;;;;4.37;3.30;;;13.80;99.90;;;;;;5052207;28;20171;-80
2023/03/23 00:34:55;;;;;;;4.03;2.83;;;13.70;99.90;;;;;;5051759;28;20553;-77
2023/03/23 00:37:22;;;;;;;6.17;3.00;;;13.70;99.90;;;;;;5052534;28;20199;-78
2023/03/23 00:39:48;;;;;;;5.50;3.50;;;13.70;99.90;;;;;;5052082;28;20227;-78
2023/03/23 00:42:16;;;;;;;6.73;3.50;;;13.70;99.90;;;;;;5052338;28;20628;-77
2023/03/23 00:44:43;;;;;;;3.90;2.83;;;13.70;99.90;;;;;;5051504;28;20175;-78
2023/03/23 00:47:11;;;;;;;4.87;2.90;;;13.70;99.90;;;;;;5051802;28;20218;-77
2023/03/23 00:49:37;;;;;;;5.03;3.13;;;13.60;99.90;;;;;;5051673;28;20179;-78
2023/03/23 00:52:04;;;;;;;4.27;3.37;;;13.60;99.90;;;;;;5053417;28;20151;-77
2023/03/23 00:54:33;;;;;;;3.87;3.33;;;13.70;99.90;;;;;;5052663;28;20178;-78
2023/03/23 00:57:00;;;;;;;6.03;3.20;;;13.70;99.90;;;;;;5051913;28;20222;-78
2023/03/23 00:59:26;;;;;;;6.37;2.97;;;13.70;99.90;;;;;;5053112;28;20633;-77
2023/03/23 01:01:51;;;;;;;3.93;2.53;;;13.70;99.90;;;;;;5053669;28;20188;-77
2023/03/23 01:04:18;;;;;;;3.73;2.50;;;13.80;99.90;;;;;;5052350;28;20186;-78
2023/03/23 01:06:45;;;;;;;4.87;3.37;;;13.70;99.90;;;;;;5051827;28;20214;-79
2023/03/23 01:09:16;;;;;;;4.43;2.97;;;13.70;99.90;;;;;;5052158;28;20592;-78
2023/03/23 01:11:43;;;;;;;6.40;3.47;;;13.60;99.90;;;;;;5051757;28;20175;-77
2023/03/23 01:14:09;;;;;;;5.70;3.23;;;13.60;99.90;;;;;;5051803;28;20557;-78
2023/03/23 01:16:35;;;;;;;4.20;3.17;;;13.70;99.90;;;;;;5051805;28;20183;-77
2023/03/23 01:19:00;;;;;;;7.07;3.20;;;13.60;99.90;;;;;;5053065;28;20520;-78
2023/03/23 01:21:28;;;;;;;5.00;3.67;;;13.80;99.90;;;;;;5053335;28;20627;-77
2023/03/23 01:23:53;;;;;;;5.03;2.83;;;13.80;99.90;;;;;;5051163;28;20194;-77
2023/03/23 01:26:22;;;;;;;4.50;3.40;;;13.70;99.90;;;;;;5050731;28;20556;-78
2023/03/23 01:28:49;;;;;;;6.70;3.30;;;13.60;99.90;;;;;;5051038;28;20621;-79
2023/03/23 01:31:18;;;;;;;4.40;3.23;;;13.50;99.90;;;;;;5052253;28;20183;-79
2023/03/23 01:33:44;;;;;;;4.87;3.60;;;13.60;99.90;;;;;;5052606;28;20656;-79
2023/03/23 01:36:15;;;;;;;3.47;2.67;;;13.50;99.90;;;;;;5053149;28;20158;-78
2023/03/23 01:38:46;;;;;;;4.87;3.27;;;13.50;99.90;;;;;;5051322;28;20168;-78
2023/03/23 01:41:12;;;;;;;3.97;2.87;;;13.60;99.90;;;;;;5053163;28;20179;-78
2023/03/23 01:43:54;;;;;;;4.10;2.50;;;13.60;99.90;;;;;;5052064;28;20675;-79
2023/03/23 01:46:22;;;;;;;4.17;2.83;;;13.60;99.90;;;;;;5053334;28;20192;-79
2023/03/23 01:48:50;;;;;;;5.70;2.90;;;13.70;99.90;;;;;;5051536;28;20184;-80
2023/03/23 01:51:18;;;;;;;5.83;3.03;;;13.60;99.90;;;;;;5051911;28;20209;-79
2023/03/23 01:53:56;;;;;;;7.53;3.27;;;13.70;99.90;;;;;;5051809;28;20234;-78
2023/03/23 01:56:29;;;;;;;6.47;3.43;;;13.60;99.90;;;;;;5052474;28;20164;-78
2023/03/23 01:58:56;;;;;;;5.80;2.73;;;13.70;99.90;;;;;;5052290;28;20159;-79
2023/03/23 02:01:24;;;;;;;5.37;3.23;;;13.70;99.90;;;;;;5052191;28;20532;-79
2023/03/23 02:03:54;;;;;;;4.00;2.93;;;13.80;99.90;;;;;;5050455;28;20183;-78
2023/03/23 02:06:19;;;;;;;4.90;3.10;;;13.80;99.90;;;;;;5050679;28;20203;-77
2023/03/23 02:08:49;;;;;;;4.20;2.67;;;13.70;99.90;;;;;;5052554;28;20636;-77
2023/03/23 02:11:18;;;;;;;3.07;2.40;;;13.50;99.90;;;;;;5051174;28;20171;-79
2023/03/23 02:13:45;;;;;;;5.77;2.50;;;13.60;99.90;;;;;;5050497;28;20633;-78
2023/03/23 02:16:26;;;;;;;5.47;2.33;;;13.50;99.90;;;;;;5052824;28;20579;-79
2023/03/23 02:19:26;;;;;;;3.67;2.40;;;13.50;99.90;;;;;;5051220;28;20194;-79
2023/03/23 02:22:31;;;;;;;4.47;2.30;;;13.60;99.90;;;;;;5052746;28;20258;-74
2023/03/23 02:25:23;;;;;;;3.73;2.17;;;13.60;99.90;;;;;;5020168;28;20195;-78
2023/03/23 02:28:16;;;;;;;3.77;1.67;;;13.40;99.90;;;;;;5051091;28;20207;-78
2023/03/23 02:31:00;;;;;;;3.90;1.57;;;13.50;99.90;;;;;;5050825;28;20704;-79
2023/03/23 02:33:31;;;;;;;6.63;2.13;;;13.60;99.90;;;;;;5049996;28;20185;-78
2023/03/23 02:36:04;;;;;;;3.60;1.97;;;13.50;99.90;;;;;;5052783;28;20666;-80
2023/03/23 02:38:44;;;;;;;4.00;1.30;;;13.70;99.90;;;;;;5050837;28;20547;-78
2023/03/23 02:41:13;;;;;;;4.33;1.50;;;13.60;99.90;;;;;;5052080;28;20163;-78
2023/03/23 02:43:44;;;;;;;2.57;1.50;;;13.50;99.90;;;;;;5052057;28;20670;-78
2023/03/23 02:46:10;;;;;;;1.87;1.20;;;13.50;99.90;;;;;;5051096;28;20279;-77
2023/03/23 02:48:39;;;;;;;2.93;1.37;;;13.60;99.90;;;;;;5052274;28;20186;-78
2023/03/23 02:51:07;;;;;;;5.40;1.80;;;13.50;99.90;;;;;;5051920;28;20191;-76
2023/03/23 02:53:36;;;;;;;5.03;1.40;;;13.50;99.90;;;;;;5054217;28;20202;-77
2023/03/23 02:56:04;;;;;;;3.43;1.30;;;13.50;99.90;;;;;;5055135;28;20156;-79
2023/03/23 02:58:31;;;;;;;2.43;1.13;;;13.70;99.90;;;;;;5053933;28;20172;-77
2023/03/23 03:00:58;;;;;;;1.67;1.00;;;13.70;99.90;;;;;;5054010;28;20168;-76
2023/03/23 03:03:29;;;;;;;2.93;1.20;;;13.60;99.90;;;;;;5054175;28;20178;-78
2023/03/23 03:06:41;;;;;;;3.03;0.97;;;13.50;99.90;;;;;;5055582;28;20205;-79
2023/03/23 03:09:26;;;;;;;3.13;1.13;;;13.50;99.90;;;;;;4977622;28;20519;-78
2023/03/23 03:12:03;;;;;;;2.43;1.07;;;13.50;99.90;;;;;;4978067;28;20279;-78
2023/03/23 03:14:41;;;;;;;4.43;1.20;;;13.70;99.90;;;;;;5038963;28;20182;-79
2023/03/23 03:17:25;;;;;;;2.50;0.93;;;13.60;99.90;;;;;;5055567;28;20158;-78
2023/03/23 03:20:09;;;;;;;4.37;1.10;;;13.60;99.90;;;;;;5055785;28;20194;-78
2023/03/23 03:22:41;;;;;;;4.90;1.20;;;13.60;99.90;;;;;;5055007;28;20167;-78
2023/03/23 03:25:09;;;;;;;3.43;1.13;;;13.50;99.90;;;;;;5053979;28;20266;-79
2023/03/23 03:27:36;;;;;;;2.50;0.80;;;13.40;99.90;;;;;;5053419;28;20210;-78
2023/03/23 03:30:05;;;;;;;3.23;1.10;;;13.50;99.90;;;;;;5053965;28;20171;-78
2023/03/23 03:32:40;;;;;;;3.03;1.10;;;13.60;99.90;;;;;;5053372;28;20171;-78
2023/03/23 03:35:07;;;;;;;3.27;0.90;;;13.50;99.90;;;;;;5053978;28;20265;-79
2023/03/23 03:37:38;;;;;;;2.87;0.90;;;13.60;99.90;;;;;;5053742;28;20672;-78
2023/03/23 03:40:11;;;;;;;3.50;0.83;;;13.60;99.90;;;;;;5053634;28;20197;-79
2023/03/23 03:42:43;;;;;;;2.87;1.37;;;13.70;99.90;;;;;;5049652;28;20187;-78
2023/03/23 03:45:11;;;;;;;4.30;1.00;;;13.60;99.90;;;;;;5052562;28;20580;-79
2023/03/23 03:47:37;;;;;;;5.47;1.33;;;13.50;99.90;;;;;;5053440;28;20204;-79
2023/03/23 03:50:03;;;;;;;5.97;1.30;;;13.60;99.90;;;;;;5054863;28;20175;-78
2023/03/23 03:52:29;;;;;;;5.03;1.37;;;13.50;99.90;;;;;;5053916;28;20234;-78
2023/03/23 03:54:55;;;;;;;4.70;1.53;;;13.60;99.90;;;;;;5053545;28;20171;-78
2023/03/23 03:57:21;;;;;;;3.87;1.30;;;13.60;99.90;;;;;;5053343;28;20167;-79
2023/03/23 03:59:47;;;;;;;5.77;1.40;;;13.60;99.90;;;;;;5055123;28;20174;-79
2023/03/23 04:02:19;;;;;;;4.30;1.20;;;13.50;99.90;;;;;;5053164;28;20156;-79
2023/03/23 04:04:49;;;;;;;5.63;1.37;;;13.50;99.90;;;;;;5052830;28;20182;-78
2023/03/23 04:07:16;;;;;;;7.73;1.40;;;13.60;99.90;;;;;;5053082;28;20202;-79
2023/03/23 04:09:48;;;;;;;6.73;1.53;;;13.50;99.90;;;;;;5053898;28;20156;-74
2023/03/23 04:12:15;;;;;;;3.40;1.10;;;13.50;99.90;;;;;;5052512;28;20199;-74
2023/03/23 04:14:42;;;;;;;4.60;1.83;;;13.50;99.90;;;;;;5053640;28;20697;-75
2023/03/23 04:17:09;;;;;;;7.60;1.47;;;13.50;99.90;;;;;;5052193;28;20168;-74
2023/03/23 04:19:36;;;;;;;6.13;1.47;;;13.60;99.90;;;;;;5052278;28;20179;-75
2023/03/23 04:22:04;;;;;;;9.70;1.90;;;13.60;99.90;;;;;;5051120;28;20183;-74
2023/03/23 04:24:33;;;;;;;5.40;1.13;;;13.50;99.90;;;;;;5053677;28;20539;-74
2023/03/23 04:26:59;;;;;;;3.77;1.60;;;13.50;99.90;;;;;;5052148;28;20281;-74
2023/03/23 04:29:25;;;;;;;6.93;1.80;;;13.40;99.90;;;;;;5053235;28;20168;-75
2023/03/23 04:31:52;;;;;;;3.67;1.30;;;13.40;99.90;;;;;;5051269;28;20186;-75
2023/03/23 04:34:18;;;;;;;5.17;1.10;;;13.40;99.90;;;;;;5053368;28;20144;-75
2023/03/23 04:36:46;;;;;;;4.70;1.37;;;13.30;99.90;;;;;;5052206;28;20168;-75
2023/03/23 04:39:13;;;;;;;4.83;1.30;;;13.20;99.90;;;;;;5052414;28;20172;-75
2023/03/23 04:41:39;;;;;;;9.07;1.40;;;13.20;99.90;;;;;;5050801;28;20190;-74
2023/03/23 04:44:06;;;;;;;6.23;1.13;;;13.30;99.90;;;;;;5053702;28;20167;-74
2023/03/23 04:46:32;;;;;;;5.60;1.40;;;13.20;99.90;;;;;;5051981;28;20207;-73
2023/03/23 04:48:59;;;;;;;5.67;1.23;;;13.30;99.90;;;;;;5053189;28;20182;-75
2023/03/23 04:51:28;;;;;;;3.17;1.10;;;13.20;99.90;;;;;;5051096;28;20175;-75
2023/03/23 04:53:54;;;;;;;3.50;1.03;;;13.20;99.90;;;;;;5051494;28;20159;-74
2023/03/23 04:56:20;;;;;;;6.60;1.50;;;13.30;99.90;;;;;;5051794;28;20175;-74
2023/03/23 04:58:46;;;;;;;3.43;1.40;;;13.10;99.90;;;;;;5051604;28;20185;-74
2023/03/23 05:01:17;;;;;;;7.30;1.40;;;13.20;99.90;;;;;;5050893;28;20548;-75
2023/03/23 05:03:43;;;;;;;4.13;1.20;;;13.10;99.90;;;;;;5052713;28;20513;-74
2023/03/23 05:06:10;;;;;;;2.60;0.83;;;13.20;99.90;;;;;;5051433;28;20650;-74
2023/03/23 05:08:38;;;;;;;2.97;1.10;;;13.10;99.90;;;;;;5051555;28;20644;-75
2023/03/23 05:11:05;;;;;;;2.03;1.10;;;13.20;99.90;;;;;;5050898;28;20224;-75
2023/03/23 05:13:31;;;;;;;4.17;1.07;;;13.10;99.90;;;;;;5052720;28;20270;-75
2023/03/23 05:15:57;;;;;;;6.40;1.20;;;13.20;99.90;;;;;;5051978;28;20168;-74
2023/03/23 05:18:24;;;;;;;2.63;0.97;;;13.30;99.90;;;;;;5051283;28;20201;-74
2023/03/23 05:20:52;;;;;;;4.57;1.30;;;13.40;99.90;;;;;;5051889;28;20241;-74
2023/03/23 05:23:24;;;;;;;4.90;0.90;;;13.30;99.90;;;;;;5051678;28;20167;-76
2023/03/23 05:25:54;;;;;;;2.90;1.13;;;13.40;99.90;;;;;;5052445;28;20207;-76
2023/03/23 05:28:22;;;;;;;4.97;1.30;;;13.30;99.90;;;;;;5052916;28;20250;-76
2023/03/23 05:30:48;;;;;;;5.40;1.57;;;13.30;99.90;;;;;;5040861;28;20541;-77
2023/03/23 05:33:14;;;;;;;4.80;1.50;;;13.40;99.90;;;;;;5032549;28;20184;-76
2023/03/23 05:35:41;;;;;;;6.13;1.57;;;13.30;99.90;;;;;;5033048;28;20233;-76
2023/03/23 05:38:08;;;;;;;5.93;1.27;;;13.30;99.90;;;;;;5032876;28;20183;-76
2023/03/23 05:40:33;;;;;;;3.70;1.40;;;13.10;99.90;;;;;;5040028;28;20200;-76
2023/03/23 05:42:59;;;;;;;3.97;1.60;;;13.10;99.90;;;;;;5052147;28;20183;-75
2023/03/23 05:45:26;;;;;;;3.67;1.67;;;13.10;99.90;;;;;;5051301;28;20172;-76
2023/03/23 05:47:51;;;;;;;4.20;1.20;;;13.20;99.90;;;;;;5051256;28;20321;-76
2023/03/23 05:50:17;;;;;;;2.33;1.23;;;13.20;99.90;;;;;;5045732;28;20183;-76
2023/03/23 05:52:43;;;;;;;4.57;1.33;;;13.20;99.90;;;;;;5032707;28;20195;-75
2023/03/23 05:55:09;;;;;;;5.97;1.80;;;13.20;99.90;;;;;;5032454;28;20732;-77
2023/03/23 05:57:35;;;;;;;9.27;1.87;;;13.20;99.90;;;;;;5047720;28;20161;-75
2023/03/23 06:00:13;;;;;;;4.20;1.80;;;13.30;99.90;;;;;;5048848;28;20525;-75
2023/03/23 06:02:39;;;;;;;5.70;1.27;;;13.30;99.90;;;;;;5044258;28;20257;-74
2023/03/23 06:05:06;;;;;;;5.60;1.33;;;13.30;99.90;;;;;;5051071;28;20186;-75
2023/03/23 06:07:32;;;;;;;3.30;1.40;;;13.20;99.90;;;;;;5051203;28;20194;-74
2023/03/23 06:09:58;;;;;;;4.77;1.50;;;13.20;99.90;;;;;;5050870;28;20182;-74
2023/03/23 06:12:25;;;;;;;5.27;2.00;;;13.20;99.90;;;;;;5050319;28;20182;-73
2023/03/23 06:14:51;;;;;;;6.93;1.57;;;13.20;99.90;;;;;;5050775;28;20174;-74
2023/03/23 06:17:17;;;;;;;3.03;1.53;;;13.30;99.90;;;;;;5048924;28;20192;-75
2023/03/23 06:19:46;;;;;;;4.63;1.47;;;13.40;99.90;;;;;;5049675;28;20179;-74
2023/03/23 06:22:12;;;;;;;4.87;1.40;;;13.20;99.90;;;;;;5050773;28;20258;-75
2023/03/23 06:24:38;;;;;;;6.87;1.50;;;13.10;99.90;;;;;;5045297;28;20618;-74
2023/03/23 06:27:04;;;;;;;5.40;1.57;;;13.20;99.90;;;;;;5053762;28;20186;-74
2023/03/23 06:29:29;;;;;;;4.63;1.60;;;13.30;99.90;;;;;;5053636;28;20202;-75
2023/03/23 06:31:59;;;;;;;6.37;1.63;;;13.30;99.90;;;;;;5054584;28;20176;-74
2023/03/23 06:34:25;;;;;;;5.10;1.60;;;13.40;99.90;;;;;;5054335;28;20273;-74
2023/03/23 06:36:50;;;;;;;7.27;1.70;;;13.30;99.90;;;;;;5054133;28;20262;-75
2023/03/23 06:39:16;;;;;;;8.37;1.60;;;13.30;99.90;;;;;;5054674;28;20167;-75
2023/03/23 06:41:42;;;;;;;3.37;1.30;;;13.20;99.90;;;;;;5054392;28;20164;-74
2023/03/23 06:44:12;;;;;;;6.30;1.60;;;13.20;99.90;;;;;;5053794;28;20216;-79
2023/03/23 06:46:39;;;;;;;5.50;1.47;;;13.30;99.90;;;;;;5056214;28;20217;-79
2023/03/23 06:49:05;;;;;;;6.83;1.60;;;13.50;99.90;;;;;;5055772;28;20270;-79
2023/03/23 06:51:31;;;;;;;6.83;1.77;;;13.30;99.90;;;;;;5054469;28;20587;-78
2023/03/23 06:53:57;;;;;;;4.13;1.30;;;13.30;99.90;;;;;;5053621;28;20193;-78
2023/03/23 06:56:23;;;;;;;6.67;1.63;;;13.10;99.90;;;;;;5055255;28;20252;-76
2023/03/23 06:58:49;;;;;;;11.40;2.60;;;13.10;99.90;;;;;;5054999;28;20168;-76
2023/03/23 07:01:15;;;;;;;9.33;2.53;;;13.00;99.90;;;;;;5055089;28;20163;-76
2023/03/23 07:03:42;;;;;;;3.47;0.97;;;13.00;99.90;;;;;;5055259;28;20243;-76
2023/03/23 07:06:08;;;;;;;1.40;0.60;;;12.50;99.90;;;;;;5040936;28;20667;-76
2023/03/23 07:08:34;;;;;;;3.00;0.63;;;11.90;99.90;;;;;;5035570;28;20181;-76
2023/03/23 07:11:06;;;;;;;1.97;0.73;;;11.60;99.90;;;;;;5040836;28;20164;-77
2023/03/23 07:13:36;;;;;;;3.37;0.80;;;11.30;99.90;;;;;;5054981;28;20263;-77
2023/03/23 07:16:42;;;;;;;4.13;1.07;;;11.10;99.90;;;;;;5053448;28;20260;-78
2023/03/23 07:19:11;;;;;;;3.77;0.70;;;11.10;99.90;;;;;;5051450;28;20172;-77
2023/03/23 07:21:44;;;;;;;4.20;0.67;;;11.00;99.90;;;;;;5048746;28;20169;-77
2023/03/23 07:24:13;;;;;;;2.03;0.70;;;11.00;99.90;;;;;;5044784;28;20205;-77
2023/03/23 07:26:41;;;;;;;5.13;0.87;;;11.00;99.90;;;;;;5052326;28;20184;-78
2023/03/23 07:29:09;;;;;;;4.20;1.13;;;11.00;99.90;;;;;;5052837;28;20168;-77
2023/03/23 07:31:34;;;;;;;3.37;0.90;;;11.00;99.90;;;;;;5051169;28;20176;-77
2023/03/23 07:34:03;;;;;;;5.80;0.90;;;11.00;99.90;;;;;;5052896;28;20171;-76
2023/03/23 07:36:29;;;;;;;6.13;0.70;;;11.00;99.90;;;;;;5054536;28;20171;-77
2023/03/23 07:38:54;;;;;;;3.17;0.97;;;11.00;99.90;;;;;;5052078;28;20577;-76
2023/03/23 07:41:20;;;;;;;4.93;1.30;;;10.80;99.90;;;;;;5053596;28;20186;-76
2023/03/23 07:43:49;;;;;;;3.43;1.20;;;10.80;99.90;;;;;;5053624;28;20279;-76
2023/03/23 07:46:15;;;;;;;7.20;1.10;;;11.00;99.90;;;;;;5052573;28;20234;-76
2023/03/23 07:48:41;;;;;;;2.80;1.20;;;11.30;99.90;;;;;;5053786;28;20184;-76
2023/03/23 07:51:07;;;;;;;3.83;1.40;;;11.30;99.90;;;;;;5053733;28;20565;-76
2023/03/23 07:53:33;;;;;;;3.53;1.53;;;11.30;99.90;;;;;;5045713;28;20622;-76
2023/03/23 07:56:03;;;;;;;4.57;1.47;;;11.40;99.90;;;;;;5052181;28;20204;-77
2023/03/23 07:58:30;;;;;;;3.67;1.07;;;11.50;99.90;;;;;;5040493;28;20198;-77
2023/03/23 08:00:57;;;;;;;3.90;1.63;;;11.70;99.90;;;;;;5038921;28;20169;-76
2023/03/23 08:03:33;;;;;;;2.70;1.33;;;11.70;99.90;;;;;;5043325;28;20173;-76
2023/03/23 08:05:59;;;;;;;6.90;1.70;;;11.60;99.90;;;;;;5047454;28;20688;-76
2023/03/23 08:08:25;;;;;;;7.77;1.47;;;11.70;99.90;;;;;;5053104;28;20176;-78
2023/03/23 08:10:52;;;;;;;5.80;1.27;;;11.70;99.90;;;;;;5065729;28;20219;-77
2023/03/23 08:13:33;;;;;;;4.07;1.10;;;11.70;99.90;;;;;;5063893;28;20164;-77
2023/03/23 08:16:03;;;;;;;6.27;1.50;;;11.90;99.90;;;;;;5037829;28;20329;-77
2023/03/23 08:18:31;;;;;;;4.73;1.10;;;11.80;99.90;;;;;;5048923;28;20153;-77
2023/03/23 08:21:00;;;;;;;2.13;0.90;;;11.80;99.90;;;;;;5039622;28;20172;-76
2023/03/23 08:23:32;;;;;;;2.97;0.90;;;11.80;99.90;;;;;;5039280;28;20179;-76
2023/03/23 08:26:01;;;;;;;2.03;0.80;;;11.80;99.90;;;;;;5046579;28;20207;-76
2023/03/23 08:28:29;;;;;;;3.67;0.97;;;11.70;99.90;;;;;;5062165;28;20165;-77
2023/03/23 08:31:00;;;;;;;5.60;1.10;;;11.70;99.90;;;;;;5059469;28;20258;-76
2023/03/23 08:33:27;;;;;;;2.97;0.80;;;11.50;99.90;;;;;;5061863;28;20262;-76
2023/03/23 08:36:00;;;;;;;3.73;1.10;;;11.60;99.90;;;;;;5052913;28;20179;-76
2023/03/23 08:38:28;;;;;;;3.30;1.40;;;11.60;99.90;;;;;;5045591;28;20226;-78
2023/03/23 08:41:04;;;;;;;2.87;0.90;;;11.40;99.90;;;;;;5051328;28;20175;-77
2023/03/23 08:43:31;;;;;;;4.60;1.13;;;11.30;99.90;;;;;;5069078;28;20188;-75
2023/03/23 08:45:57;;;;;;;6.30;1.03;;;11.30;99.90;;;;;;5054191;28;20174;-77
2023/03/23 08:48:30;;;;;;;2.77;0.73;;;11.30;99.90;;;;;;5063897;28;20704;-76
2023/03/23 08:50:59;;;;;;;1.50;1.00;;;11.30;99.90;;;;;;5060674;28;20193;-77
2023/03/23 08:53:32;;;;;;;2.93;1.00;;;11.40;99.90;;;;;;5064675;28;20175;-77
2023/03/23 08:56:13;;;;;;;3.47;0.90;;;11.40;99.90;;;;;;5061177;28;20181;-77
2023/03/23 08:58:45;;;;;;;4.77;1.10;;;11.40;99.90;;;;;;5062669;28;20177;-76
2023/03/23 09:01:17;;;;;;;3.37;1.40;;;11.30;99.90;;;;;;5060657;28;20183;-76
2023/03/23 09:03:46;;;;;;;3.23;1.30;;;11.40;99.90;;;;;;5059505;28;20244;-76
2023/03/23 09:06:17;;;;;;;4.27;1.20;;;11.40;99.90;;;;;;5061812;28;20192;-76
2023/03/23 09:08:51;;;;;;;3.63;1.10;;;11.30;99.90;;;;;;5059585;28;20238;-76
2023/03/23 09:11:52;;;;;;;6.50;1.57;;;11.40;99.90;;;;;;5052742;28;20250;-78
2023/03/23 09:14:18;;;;;;;2.40;1.23;;;11.60;99.90;;;;;;5061985;28;20243;-77
2023/03/23 09:16:45;;;;;;;3.00;1.00;;;11.40;99.90;;;;;;5066388;28;20191;-77
2023/03/23 09:19:20;;;;;;;4.77;1.27;;;11.50;99.90;;;;;;5055482;28;21063;-77
2023/03/23 09:21:46;;;;;;;5.63;1.33;;;11.50;99.90;;;;;;5055328;28;20259;-77
2023/03/23 09:24:12;;;;;;;2.80;1.27;;;11.50;99.90;;;;;;5057510;28;20203;-76
2023/03/23 09:26:45;;;;;;;4.73;1.57;;;11.50;99.90;;;;;;5064469;28;20207;-78
2023/03/23 09:29:12;;;;;;;3.23;0.83;;;11.60;99.90;;;;;;5061429;28;20196;-75
2023/03/23 09:31:42;;;;;;;3.13;1.07;;;11.50;99.90;;;;;;5060389;28;20196;-75
2023/03/23 09:34:11;;;;;;;2.57;0.90;;;11.60;99.90;;;;;;5056481;28;20172;-77
2023/03/23 09:36:40;;;;;;;5.07;1.40;;;11.50;99.90;;;;;;5059942;28;20251;-76
2023/03/23 09:39:11;;;;;;;3.10;1.07;;;11.40;99.90;;;;;;5056395;28;20203;-76
2023/03/23 09:42:01;;;;;;;5.03;1.40;;;11.40;99.90;;;;;;5053904;28;20171;-76
2023/03/23 09:44:59;;;;;;;3.20;1.43;;;11.30;99.90;;;;;;5062251;28;20176;-76
2023/03/23 09:47:42;;;;;;;3.03;0.90;;;11.60;99.90;;;;;;5062794;28;20692;-76
2023/03/23 09:50:23;;;;;;;3.27;1.20;;;11.70;99.90;;;;;;5058321;28;20671;-76
2023/03/23 09:53:01;;;;;;;3.23;1.20;;;11.70;99.90;;;;;;5051788;28;20181;-77
2023/03/23 09:55:30;;;;;;;3.07;1.40;;;11.70;99.90;;;;;;5056304;28;20172;-76
2023/03/23 09:58:23;;;;;;;4.50;1.13;;;12.00;99.90;;;;;;5061790;28;20211;-77
2023/03/23 10:01:01;;;;;;;4.53;1.43;;;12.10;99.90;;;;;;5052377;28;20177;-78
2023/03/23 10:03:37;;;;;;;2.87;1.20;;;12.20;99.90;;;;;;5065405;28;20227;-78
2023/03/23 10:06:04;;;;;;;3.57;1.30;;;12.40;99.90;;;;;;5062642;28;20185;-76
2023/03/23 10:08:51;;;;;;;4.20;1.43;;;12.50;99.90;;;;;;5060770;28;20159;-76
2023/03/23 10:11:53;;;;;;;3.23;1.50;;;12.80;99.90;;;;;;5057876;28;20167;-76
2023/03/23 10:14:31;;;;;;;3.03;1.37;;;13.00;99.90;;;;;;5060628;28;20178;-75
2023/03/23 10:17:14;;;;;;;5.17;1.63;;;13.10;99.90;;;;;;5066160;28;20177;-75
2023/03/23 10:20:15;;;;;;;2.50;1.47;;;13.10;99.90;;;;;;5075434;28;20171;-76
2023/03/23 10:22:59;;;;;;;4.27;1.73;;;13.20;99.90;;;;;;5076570;28;20619;-75
2023/03/23 10:25:30;;;;;;;5.97;1.50;;;13.50;99.90;;;;;;5075703;28;20170;-75
2023/03/23 10:28:16;;;;;;;4.70;1.60;;;13.60;99.90;;;;;;5075127;28;20595;-75
2023/03/23 10:30:46;;;;;;;5.00;1.63;;;13.50;99.90;;;;;;5076362;28;20210;-75
2023/03/23 10:33:25;;;;;;;3.17;1.60;;;13.80;99.90;;;;;;5075993;28;20204;-75
2023/03/23 10:36:00;;;;;;;6.93;1.83;;;13.50;99.90;;;;;;5074543;28;20160;-75
2023/03/23 10:39:09;;;;;;;3.90;1.70;;;13.70;99.90;;;;;;5076244;28;20174;-75
2023/03/23 10:41:35;;;;;;;4.80;2.00;;;13.90;99.90;;;;;;5053606;28;20202;-75
2023/03/23 10:44:01;;;;;;;6.07;2.20;;;14.00;99.90;;;;;;5075421;28;20155;-75
2023/03/23 10:46:53;;;;;;;3.60;1.67;;;13.80;99.90;;;;;;5075466;28;20203;-75
2023/03/23 10:49:49;;;;;;;4.17;1.77;;;13.60;99.90;;;;;;5075321;28;20178;-75
2023/03/23 10:52:37;;;;;;;3.27;1.80;;;13.70;99.90;;;;;;5074297;28;20262;-74
2023/03/23 10:55:08;;;;;;;5.17;1.93;;;14.00;99.90;;;;;;5073799;28;20262;-75
2023/03/23 10:57:37;;;;;;;6.90;2.07;;;14.40;99.90;;;;;;5073619;28;20596;-76
2023/03/23 11:00:14;;;;;;;5.40;1.87;;;14.20;99.90;;;;;;5075238;28;20182;-76
2023/03/23 11:02:43;;;;;;;6.23;3.17;;;14.20;99.90;;;;;;5075356;28;20167;-76
2023/03/23 11:05:19;;;;;;;7.67;2.67;;;14.30;99.90;;;;;;5075332;28;20186;-75
2023/03/23 11:07:53;;;;;;;6.83;2.53;;;14.40;99.90;;;;;;5074768;28;20288;-75
2023/03/23 11:10:37;;;;;;;4.53;1.80;;;14.60;99.90;;;;;;5074169;28;20183;-75
2023/03/23 11:13:09;;;;;;;6.00;2.00;;;14.60;99.90;;;;;;5072983;28;20163;-75
2023/03/23 11:15:39;;;;;;;5.90;2.10;;;14.70;99.90;;;;;;5074101;28;20178;-75
2023/03/23 11:18:09;;;;;;;7.67;2.00;;;14.90;99.90;;;;;;5074196;28;20175;-75
2023/03/23 11:20:39;;;;;;;4.47;2.10;;;15.00;99.90;;;;;;5075315;28;20205;-75
2023/03/23 11:23:48;;;;;;;6.67;2.33;;;14.80;99.90;;;;;;5073694;28;20182;-75
2023/03/23 11:26:26;;;;;;;7.60;1.90;;;14.70;99.90;;;;;;5040138;28;20801;-76
2023/03/23 11:28:52;;;;;;;5.30;2.13;;;14.90;99.90;;;;;;5073297;28;20628;-76
2023/03/23 11:31:22;;;;;;;4.73;1.70;;;15.00;99.90;;;;;;5073221;28;20257;-76
2023/03/23 11:33:51;;;;;;;6.57;2.30;;;14.90;99.90;;;;;;5073328;28;20650;-76
2023/03/23 11:36:19;;;;;;;6.77;2.47;;;14.90;99.90;;;;;;5074570;28;20191;-77
2023/03/23 11:38:45;;;;;;;8.33;2.20;;;14.90;99.90;;;;;;5074526;28;20205;-77
2023/03/23 11:41:13;;;;;;;6.10;1.97;;;14.90;99.90;;;;;;5075020;28;20198;-77
2023/03/23 11:43:46;;;;;;;9.27;3.33;;;14.90;99.90;;;;;;5075231;28;20163;-75
2023/03/23 11:46:25;;;;;;;10.87;2.80;;;15.00;99.90;;;;;;5074794;28;20163;-76
2023/03/23 11:49:10;;;;;;;4.47;2.20;;;15.20;99.90;;;;;;5073349;28;20178;-76
2023/03/23 11:51:46;;;;;;;7.57;2.10;;;15.20;99.90;;;;;;5073358;28;20174;-76
2023/03/23 11:54:14;;;;;;;5.13;1.77;;;15.60;99.90;;;;;;5073306;28;20170;-76
2023/03/23 11:56:43;;;;;;;7.83;2.30;;;15.60;99.90;;;;;;5072988;28;20541;-76
2023/03/23 11:59:14;;;;;;;6.93;1.70;;;15.80;99.90;;;;;;5074559;28;20173;-76
2023/03/23 12:01:46;;;;;;;4.27;1.60;;;15.80;99.90;;;;;;5072886;28;20194;-76
2023/03/23 12:04:24;;;;;;;6.20;1.30;;;16.10;99.90;;;;;;5074140;28;20201;-76
2023/03/23 12:07:01;;;;;;;4.70;1.37;;;16.10;99.90;;;;;;5073393;28;20195;-76
2023/03/23 12:09:37;;;;;;;5.30;1.63;;;15.80;99.90;;;;;;5072678;28;20166;-77
2023/03/23 12:12:21;;;;;;;6.60;1.33;;;15.60;99.90;;;;;;5074048;28;20691;-76
2023/03/23 12:14:57;;;;;;;5.53;1.30;;;15.60;99.90;;;;;;5072620;28;20309;-77
2023/03/23 12:17:25;;;;;;;3.13;1.20;;;16.00;99.90;;;;;;5073580;28;20662;-74
2023/03/23 12:20:31;;;;;;;6.10;1.90;;;16.10;99.90;;;;;;5072586;28;20179;-75
2023/03/23 12:23:25;;;;;;;5.33;1.20;;;16.30;99.90;;;;;;5073906;28;20164;-77
2023/03/23 12:26:10;;;;;;;3.70;1.43;;;16.80;99.90;;;;;;5073486;28;20583;-76
2023/03/23 12:29:04;;;;;;;6.00;1.13;;;17.30;99.90;;;;;;5071783;28;20181;-76
2023/03/23 12:32:09;;;;;;;4.83;1.70;;;17.20;99.90;;;;;;5072196;28;20536;-76
2023/03/23 12:34:54;;;;;;;10.40;1.80;;;17.30;99.90;;;;;;5055005;28;20221;-76
2023/03/23 12:37:20;;;;;;;3.37;0.90;;;17.40;99.90;;;;;;5073123;28;20147;-76
2023/03/23 12:39:59;;;;;;;5.87;1.63;;;18.20;99.90;;;;;;5073174;28;20216;-76
2023/03/23 12:42:41;;;;;;;2.60;1.50;;;18.10;99.90;;;;;;5073412;28;20165;-76
2023/03/23 12:45:43;;;;;;;8.87;2.27;;;18.50;99.90;;;;;;5073438;28;20225;-76
2023/03/23 12:48:16;;;;;;;4.93;1.60;;;19.40;99.90;;;;;;5073509;28;20194;-76
2023/03/23 12:51:02;;;;;;;5.87;1.63;;;19.30;99.90;;;;;;5073354;28;20190;-73
2023/03/23 12:53:38;;;;;;;7.40;2.00;;;18.80;99.90;;;;;;5072094;28;20173;-74
2023/03/23 12:56:15;;;;;;;6.93;2.00;;;18.30;99.90;;;;;;5073063;28;20171;-74
2023/03/23 12:58:53;;;;;;;5.07;1.77;;;17.70;99.90;;;;;;5073254;28;20520;-74
2023/03/23 13:01:24;;;;;;;4.97;1.77;;;17.30;99.90;;;;;;5071651;28;20177;-73
2023/03/23 13:03:55;;;;;;;10.30;2.17;;;17.10;99.90;;;;;;5071354;28;20630;-73
2023/03/23 13:06:42;;;;;;;6.77;1.80;;;16.70;99.90;;;;;;5071856;28;20649;-73
2023/03/23 13:09:33;;;;;;;7.60;2.00;;;16.40;99.90;;;;;;5071320;28;20633;-75